Time;durP1;ratioP1;P1;durP2;ratioP2;P2;SDS_P1;SDS_P2;PMS_P1;PMS_P2;Temp;Humidity;BMP_temperature;BMP_pressure;BME280_temperature;BME280_humidity;BME280_pressure;Samples;Min_cycle;Max_cycle;Signal;HPM_P1;HPM_P2
2022/01/02 00:00:22;;;;;;;13.30;7.43;;;11.30;99.90;;;;;;5000338;28;20041;-71
2022/01/02 00:03:02;;;;;;;15.50;7.70;;;11.20;99.90;;;;;;4999174;28;20068;-70
2022/01/02 00:05:32;;;;;;;13.50;6.90;;;11.20;99.90;;;;;;4995414;28;20062;-71
2022/01/02 00:08:03;;;;;;;16.45;7.95;;;11.20;99.90;;;;;;4996287;28;20125;-70
2022/01/02 00:10:32;;;;;;;13.65;7.90;;;11.20;99.90;;;;;;4995579;28;20154;-71
2022/01/02 00:12:59;;;;;;;11.85;7.60;;;11.20;99.90;;;;;;4996615;28;20046;-72
2022/01/02 00:15:25;;;;;;;13.77;7.80;;;11.20;99.90;;;;;;4963238;28;20109;-70
2022/01/02 00:18:06;;;;;;;14.85;8.02;;;11.20;99.90;;;;;;4996016;28;20061;-70
2022/01/02 00:20:32;;;;;;;12.80;7.40;;;11.20;99.90;;;;;;4994768;28;20069;-69
2022/01/02 00:23:06;;;;;;;17.38;7.57;;;11.20;99.90;;;;;;4995043;28;20069;-71
2022/01/02 00:25:41;;;;;;;19.13;7.75;;;11.20;99.90;;;;;;4963030;28;20054;-71
2022/01/02 00:28:09;;;;;;;15.57;8.20;;;11.10;99.90;;;;;;4978781;28;20375;-69
2022/01/02 00:30:36;;;;;;;17.85;8.10;;;11.10;99.90;;;;;;5000893;28;20060;-72
2022/01/02 00:33:02;;;;;;;18.45;8.70;;;11.10;99.90;;;;;;4997616;28;20111;-70
2022/01/02 00:35:27;;;;;;;21.10;8.25;;;11.10;99.90;;;;;;5015660;28;20124;-70
2022/01/02 00:37:53;;;;;;;19.70;8.38;;;11.10;99.90;;;;;;4998392;28;20054;-69
2022/01/02 00:40:19;;;;;;;16.27;8.82;;;11.10;99.90;;;;;;4998493;28;20081;-70
2022/01/02 00:42:47;;;;;;;13.90;7.72;;;11.10;99.90;;;;;;4998147;28;20132;-73
2022/01/02 00:45:26;;;;;;;17.45;8.82;;;11.20;99.90;;;;;;5015703;28;20062;-72
2022/01/02 00:47:56;;;;;;;19.05;9.07;;;11.10;99.90;;;;;;4997889;28;20450;-73
2022/01/02 00:50:38;;;;;;;18.05;8.38;;;11.10;99.90;;;;;;5015244;28;20143;-71
2022/01/02 00:53:06;;;;;;;17.05;8.75;;;11.10;99.90;;;;;;4998346;28;20152;-69
2022/01/02 00:55:35;;;;;;;17.85;8.43;;;11.10;99.90;;;;;;5015151;28;20052;-72
2022/01/02 00:58:05;;;;;;;18.83;9.57;;;11.10;99.90;;;;;;4997772;28;20057;-70
2022/01/02 01:00:31;;;;;;;14.32;8.10;;;11.10;99.90;;;;;;5015160;28;20073;-70
2022/01/02 01:02:59;;;;;;;16.50;8.82;;;11.10;99.90;;;;;;5015169;28;20414;-71
2022/01/02 01:05:26;;;;;;;16.88;9.10;;;11.10;99.90;;;;;;5015093;28;20458;-71
2022/01/02 01:07:58;;;;;;;16.17;8.90;;;11.10;99.90;;;;;;5015288;28;20050;-71
2022/01/02 01:10:28;;;;;;;19.83;9.13;;;11.20;99.90;;;;;;4997709;28;20057;-71
2022/01/02 01:12:57;;;;;;;21.45;9.43;;;11.20;99.90;;;;;;5015452;28;20077;-71
2022/01/02 01:15:24;;;;;;;19.40;8.88;;;11.20;99.90;;;;;;5015194;28;20042;-70
2022/01/02 01:17:55;;;;;;;23.70;10.07;;;11.20;99.90;;;;;;5015169;28;20053;-69
2022/01/02 01:20:22;;;;;;;19.63;9.32;;;11.20;99.90;;;;;;4997863;28;20136;-71
2022/01/02 01:22:48;;;;;;;19.70;9.23;;;11.20;99.90;;;;;;5015025;28;20466;-70
2022/01/02 01:25:17;;;;;;;19.73;10.02;;;11.20;99.90;;;;;;5014807;28;20085;-71
2022/01/02 01:27:47;;;;;;;18.58;9.27;;;11.20;99.90;;;;;;4998095;28;20057;-72
2022/01/02 01:30:15;;;;;;;19.33;9.20;;;11.20;99.90;;;;;;5014834;28;20038;-68
2022/01/02 01:32:41;;;;;;;22.75;9.80;;;11.20;99.90;;;;;;4999461;28;20042;-71
2022/01/02 01:35:07;;;;;;;17.80;9.73;;;11.20;99.90;;;;;;5001427;28;20042;-69
2022/01/02 01:37:33;;;;;;;21.50;9.90;;;11.20;99.90;;;;;;5018404;28;20041;-72
2022/01/02 01:40:00;;;;;;;21.98;10.35;;;11.20;99.90;;;;;;5018762;28;20103;-71
2022/01/02 01:42:56;;;;;;;20.38;10.13;;;11.20;99.90;;;;;;5018572;28;20066;-70
2022/01/02 01:47:54;;;;;;;20.70;10.35;;;11.20;99.90;;;;;;5018507;28;20386;-70
2022/01/02 01:50:41;;;;;;;26.90;10.82;;;11.20;99.90;;;;;;5018243;28;20129;-71
2022/01/02 01:53:08;;;;;;;21.17;10.75;;;11.20;99.90;;;;;;5017975;28;20062;-70
2022/01/02 01:55:35;;;;;;;24.05;11.27;;;11.20;99.90;;;;;;5018663;28;20054;-70
2022/01/02 01:58:03;;;;;;;22.77;10.63;;;11.20;99.90;;;;;;5018171;28;20038;-71
2022/01/02 02:00:29;;;;;;;22.35;10.52;;;11.20;99.90;;;;;;5000162;28;20081;-71
2022/01/02 02:02:56;;;;;;;23.83;10.68;;;11.10;99.90;;;;;;5018049;28;20049;-73
2022/01/02 02:05:21;;;;;;;23.65;10.85;;;11.10;99.90;;;;;;5000797;28;20042;-71
2022/01/02 02:07:47;;;;;;;30.52;11.70;;;11.10;99.90;;;;;;5018584;28;20060;-71
2022/01/02 02:10:24;;;;;;;23.25;11.35;;;11.20;99.90;;;;;;5001117;28;20159;-71
2022/01/02 02:12:52;;;;;;;20.58;10.98;;;11.10;99.90;;;;;;5000893;28;20050;-69
2022/01/02 02:15:18;;;;;;;21.75;12.23;;;11.10;99.90;;;;;;5018084;28;20060;-69
2022/01/02 02:17:46;;;;;;;24.50;12.93;;;11.10;99.90;;;;;;5018093;28;20046;-70
2022/01/02 02:20:29;;;;;;;20.90;11.35;;;11.10;99.90;;;;;;5000631;28;20093;-71
2022/01/02 02:22:56;;;;;;;16.83;11.37;;;11.10;99.90;;;;;;5017870;28;20104;-71
2022/01/02 02:25:24;;;;;;;23.52;10.93;;;11.10;99.90;;;;;;5000705;28;20129;-72
2022/01/02 02:27:52;;;;;;;22.52;11.50;;;11.10;99.90;;;;;;5000607;28;20041;-71
2022/01/02 02:30:18;;;;;;;26.45;11.68;;;11.10;99.90;;;;;;4999794;28;20054;-71
2022/01/02 02:32:44;;;;;;;20.73;11.05;;;11.10;99.90;;;;;;5017783;28;20053;-69
2022/01/02 02:35:10;;;;;;;22.90;12.40;;;11.10;99.90;;;;;;5000266;28;20084;-72
2022/01/02 02:37:45;;;;;;;24.02;11.85;;;11.10;99.90;;;;;;4999955;28;20081;-71
2022/01/02 02:40:12;;;;;;;26.10;11.65;;;11.10;99.90;;;;;;5017446;28;20359;-70
2022/01/02 02:43:00;;;;;;;25.10;11.93;;;11.10;99.90;;;;;;5017424;28;20046;-71
2022/01/02 02:51:20;;;;;;;23.23;11.32;;;11.10;99.90;;;;;;5016954;28;20053;-71
2022/01/02 02:53:48;;;;;;;22.98;11.45;;;11.10;99.90;;;;;;4997817;28;20057;-70
2022/01/02 02:56:19;;;;;;;27.77;12.27;;;11.10;99.90;;;;;;4997815;28;20050;-71
2022/01/02 02:58:46;;;;;;;22.05;10.60;;;11.10;99.90;;;;;;4997633;28;20046;-71
2022/01/02 03:01:14;;;;;;;21.67;12.05;;;11.10;99.90;;;;;;4980215;28;20050;-72
2022/01/02 03:03:41;;;;;;;25.23;12.23;;;11.00;99.90;;;;;;4996606;28;20480;-70
2022/01/02 03:06:07;;;;;;;29.73;13.00;;;11.10;99.90;;;;;;4980214;28;20043;-72
2022/01/02 03:08:35;;;;;;;26.13;12.30;;;11.10;99.90;;;;;;4997671;28;20042;-73
2022/01/02 03:11:00;;;;;;;27.95;12.15;;;11.10;99.90;;;;;;4997399;28;20046;-70
2022/01/02 03:13:26;;;;;;;26.90;12.77;;;11.00;99.90;;;;;;4980337;28;20046;-71
2022/01/02 03:15:52;;;;;;;26.70;12.30;;;11.10;99.90;;;;;;4980333;28;20435;-73
2022/01/02 03:18:17;;;;;;;28.92;12.82;;;11.10;99.90;;;;;;4980894;28;20344;-73
2022/01/02 03:20:43;;;;;;;27.13;12.30;;;11.10;99.90;;;;;;4997302;28;20155;-70
2022/01/02 03:23:09;;;;;;;32.78;13.95;;;11.10;99.90;;;;;;4996851;28;20060;-71
2022/01/02 03:25:34;;;;;;;28.15;12.45;;;11.10;99.90;;;;;;5016915;28;20053;-73
2022/01/02 03:28:00;;;;;;;30.88;14.27;;;11.00;99.90;;;;;;5016501;28;20536;-70
2022/01/02 03:30:25;;;;;;;35.95;12.60;;;11.10;99.90;;;;;;4999202;28;20060;-69
2022/01/02 03:32:51;;;;;;;26.05;12.93;;;11.00;99.90;;;;;;4999685;28;20049;-71
2022/01/02 03:35:16;;;;;;;24.33;12.35;;;11.10;99.90;;;;;;5016592;28;20123;-70
2022/01/02 03:37:43;;;;;;;24.98;13.10;;;11.10;99.90;;;;;;4999546;28;20064;-71
2022/01/02 03:40:10;;;;;;;28.02;12.68;;;11.10;99.90;;;;;;5016604;28;20209;-70
2022/01/02 03:42:36;;;;;;;26.83;12.18;;;11.10;99.90;;;;;;5016162;28;20088;-69
2022/01/02 03:45:03;;;;;;;34.10;13.32;;;11.10;99.90;;;;;;5010722;28;20125;-70
2022/01/02 03:47:29;;;;;;;33.80;13.05;;;11.10;99.90;;;;;;4979805;28;20364;-70
2022/01/02 03:49:57;;;;;;;35.05;13.32;;;11.10;99.90;;;;;;4979933;28;20133;-73
2022/01/02 03:52:24;;;;;;;32.03;13.20;;;11.10;99.90;;;;;;4996743;28;20078;-70
2022/01/02 03:54:49;;;;;;;24.75;12.73;;;11.10;99.90;;;;;;4996485;28;20050;-72
2022/01/02 03:57:15;;;;;;;23.73;11.55;;;11.10;99.90;;;;;;4995563;28;20072;-70
2022/01/02 03:59:40;;;;;;;27.20;12.15;;;11.10;99.90;;;;;;4979433;28;20054;-71
2022/01/02 04:02:06;;;;;;;28.75;11.95;;;11.10;99.90;;;;;;4996422;28;20049;-70
2022/01/02 04:04:31;;;;;;;31.52;12.60;;;11.10;99.90;;;;;;4979191;28;20065;-72
2022/01/02 04:06:57;;;;;;;26.20;11.68;;;11.10;99.90;;;;;;4979161;28;20348;-71
2022/01/02 04:09:22;;;;;;;27.20;11.75;;;11.20;99.90;;;;;;4995350;28;20101;-70
2022/01/02 04:11:48;;;;;;;27.75;11.15;;;11.20;99.90;;;;;;4995993;28;20042;-70
2022/01/02 04:14:13;;;;;;;28.92;11.15;;;11.20;99.90;;;;;;4996589;28;20046;-70
2022/01/02 04:16:39;;;;;;;23.00;10.68;;;11.20;99.90;;;;;;5012650;28;20747;-71
2022/01/02 04:19:05;;;;;;;29.90;11.73;;;11.30;99.90;;;;;;4998292;28;20366;-71
2022/01/02 04:21:30;;;;;;;23.73;11.32;;;11.30;99.90;;;;;;5015688;28;20053;-73
2022/01/02 04:23:56;;;;;;;30.55;11.20;;;11.30;99.90;;;;;;4998106;28;20052;-72
2022/01/02 04:26:21;;;;;;;26.05;11.23;;;11.30;99.90;;;;;;4998657;28;20048;-71
2022/01/02 04:28:48;;;;;;;28.00;11.25;;;11.30;99.90;;;;;;5015600;28;20061;-71
2022/01/02 04:31:14;;;;;;;23.60;10.40;;;11.30;99.90;;;;;;4999014;28;20061;-70
2022/01/02 04:33:39;;;;;;;25.98;10.75;;;11.30;99.90;;;;;;5015702;28;20041;-70
2022/01/02 04:36:05;;;;;;;30.23;10.75;;;11.30;99.90;;;;;;4998490;28;20058;-69
2022/01/02 04:38:31;;;;;;;27.10;11.18;;;11.30;99.90;;;;;;4998378;28;20081;-70
2022/01/02 04:40:56;;;;;;;30.98;11.15;;;11.30;99.90;;;;;;4997958;28;20046;-69
2022/01/02 04:43:22;;;;;;;33.67;11.43;;;11.30;99.90;;;;;;4997784;28;20061;-72
2022/01/02 04:45:48;;;;;;;26.15;10.63;;;11.30;99.90;;;;;;4986899;28;20057;-69
2022/01/02 04:48:14;;;;;;;27.08;9.88;;;11.30;99.90;;;;;;4995625;28;20130;-70
2022/01/02 04:50:40;;;;;;;24.35;10.10;;;11.30;99.90;;;;;;4995766;28;20411;-71
2022/01/02 04:53:05;;;;;;;26.02;9.93;;;11.30;99.90;;;;;;4978651;28;20375;-70
2022/01/02 04:55:31;;;;;;;28.35;10.65;;;11.30;99.90;;;;;;4994166;28;20421;-70
2022/01/02 04:57:56;;;;;;;29.80;10.40;;;11.20;99.90;;;;;;4995929;28;20427;-70
2022/01/02 05:00:22;;;;;;;23.40;10.57;;;11.30;99.90;;;;;;4978372;28;20125;-70
2022/01/02 05:02:49;;;;;;;29.10;10.98;;;11.30;99.90;;;;;;4979073;28;20421;-69
2022/01/02 05:05:15;;;;;;;29.42;9.98;;;11.30;99.90;;;;;;4995717;28;20138;-69
2022/01/02 05:07:41;;;;;;;23.15;9.00;;;11.30;99.90;;;;;;4981549;28;20045;-68
2022/01/02 05:10:07;;;;;;;26.48;9.80;;;11.30;99.90;;;;;;4984628;28;20343;-70
2022/01/02 05:12:34;;;;;;;27.08;9.80;;;11.30;99.90;;;;;;4985295;28;20120;-69
2022/01/02 05:15:00;;;;;;;27.23;9.48;;;11.30;99.90;;;;;;4990976;28;20046;-70
2022/01/02 05:17:25;;;;;;;23.10;9.00;;;11.30;99.90;;;;;;4988109;28;20045;-69
2022/01/02 05:19:51;;;;;;;29.60;9.85;;;11.30;99.90;;;;;;5021576;28;20061;-70
2022/01/02 05:22:17;;;;;;;24.20;9.32;;;11.30;99.90;;;;;;5021659;28;20057;-71
2022/01/02 05:24:42;;;;;;;26.83;9.85;;;11.30;99.90;;;;;;5020861;28;20397;-70
2022/01/02 05:27:08;;;;;;;25.92;9.80;;;11.30;99.90;;;;;;5005026;28;20434;-70
2022/01/02 05:29:34;;;;;;;26.35;8.85;;;11.30;99.90;;;;;;5004514;28;20050;-71
2022/01/02 05:31:59;;;;;;;21.83;9.02;;;11.30;99.90;;;;;;5021482;28;20060;-70
2022/01/02 05:34:25;;;;;;;21.85;8.75;;;11.30;99.90;;;;;;5021477;28;20046;-69
2022/01/02 05:36:50;;;;;;;19.58;7.88;;;11.40;99.90;;;;;;4989913;28;20363;-71
2022/01/02 05:39:18;;;;;;;28.70;8.70;;;11.30;99.90;;;;;;5001912;28;20458;-71
2022/01/02 05:41:45;;;;;;;29.15;8.68;;;11.40;99.90;;;;;;4984946;28;20061;-71
2022/01/02 05:44:10;;;;;;;20.13;8.60;;;11.40;99.90;;;;;;4984294;28;20050;-71
2022/01/02 05:46:36;;;;;;;29.85;9.60;;;11.40;99.90;;;;;;5007587;28;20045;-72
2022/01/02 05:49:01;;;;;;;22.73;8.15;;;11.40;99.90;;;;;;5003910;28;20065;-70
2022/01/02 05:51:27;;;;;;;19.73;8.27;;;11.40;99.90;;;;;;5004250;28;20058;-69
2022/01/02 05:53:53;;;;;;;22.58;8.23;;;11.40;99.90;;;;;;5003799;28;20464;-70
2022/01/02 05:56:18;;;;;;;21.25;8.05;;;11.40;99.90;;;;;;5004059;28;20076;-72
2022/01/02 05:58:44;;;;;;;22.23;7.60;;;11.40;99.90;;;;;;5004206;28;20417;-71
2022/01/02 06:01:09;;;;;;;21.98;7.97;;;11.40;99.90;;;;;;5004057;28;20421;-70
2022/01/02 06:03:35;;;;;;;26.70;8.23;;;11.40;99.90;;;;;;5021126;28;20439;-71
2022/01/02 06:06:01;;;;;;;27.48;8.95;;;11.40;99.90;;;;;;5021399;28;20038;-72
2022/01/02 06:08:27;;;;;;;23.45;7.68;;;11.40;99.90;;;;;;5021083;28;20132;-72
2022/01/02 06:10:52;;;;;;;18.90;8.57;;;11.40;99.90;;;;;;5004075;28;20137;-71
2022/01/02 06:13:18;;;;;;;26.38;8.52;;;11.40;99.90;;;;;;5004256;28;20050;-72
2022/01/02 06:15:44;;;;;;;21.25;7.68;;;11.40;99.90;;;;;;4988818;28;20077;-69
2022/01/02 06:18:09;;;;;;;25.90;8.77;;;11.50;99.90;;;;;;4984247;28;20058;-70
2022/01/02 06:20:35;;;;;;;27.70;8.73;;;11.50;99.90;;;;;;4987607;28;20093;-72
2022/01/02 06:23:01;;;;;;;25.67;8.30;;;11.50;99.90;;;;;;4998936;28;20046;-72
2022/01/02 06:25:26;;;;;;;23.98;8.05;;;11.50;99.90;;;;;;5018283;28;20041;-69
2022/01/02 06:27:52;;;;;;;18.25;8.10;;;11.50;99.90;;;;;;5000554;28;20096;-71
2022/01/02 06:30:18;;;;;;;23.20;7.97;;;11.50;99.90;;;;;;5018143;28;20438;-70
2022/01/02 06:32:44;;;;;;;26.35;8.45;;;11.50;99.90;;;;;;5017767;28;20053;-70
2022/01/02 06:35:10;;;;;;;19.23;7.57;;;11.50;99.90;;;;;;5000293;28;20042;-70
2022/01/02 06:37:36;;;;;;;25.13;7.10;;;11.50;99.90;;;;;;5017536;28;20053;-69
2022/01/02 06:40:03;;;;;;;33.33;8.23;;;11.60;99.90;;;;;;5000758;28;20057;-70
2022/01/02 06:42:29;;;;;;;18.88;6.85;;;11.60;99.90;;;;;;5000605;28;20532;-70
2022/01/02 06:44:54;;;;;;;20.40;7.55;;;11.60;99.90;;;;;;5017038;28;20038;-70
2022/01/02 06:47:20;;;;;;;19.15;6.53;;;11.60;99.90;;;;;;5016712;28;20513;-71
2022/01/02 06:49:45;;;;;;;18.75;6.20;;;11.60;99.90;;;;;;5016731;28;20041;-69
2022/01/02 06:52:11;;;;;;;23.73;7.07;;;11.70;99.90;;;;;;5016140;28;20118;-72
2022/01/02 06:54:37;;;;;;;19.65;7.22;;;11.60;99.90;;;;;;5016289;28;20057;-71
2022/01/02 06:57:03;;;;;;;19.13;7.50;;;11.70;99.90;;;;;;4998300;28;20042;-71
2022/01/02 06:59:31;;;;;;;19.20;5.90;;;11.60;99.90;;;;;;5000143;28;20116;-70
2022/01/02 07:01:56;;;;;;;21.33;5.72;;;11.60;99.90;;;;;;5000428;28;20060;-71
2022/01/02 07:04:22;;;;;;;22.80;5.88;;;11.70;99.90;;;;;;5000049;28;20050;-71
2022/01/02 07:06:48;;;;;;;18.13;5.57;;;11.70;99.90;;;;;;4999438;28;20057;-69
2022/01/02 07:09:13;;;;;;;14.88;5.28;;;11.70;99.90;;;;;;4999905;28;20466;-69
2022/01/02 07:11:39;;;;;;;16.27;5.18;;;11.70;99.90;;;;;;4999749;28;20037;-73
2022/01/02 07:14:04;;;;;;;17.15;5.13;;;11.70;99.90;;;;;;5016245;28;20129;-69
2022/01/02 07:16:30;;;;;;;15.65;4.82;;;11.70;99.90;;;;;;5017115;28;20443;-68
2022/01/02 07:18:56;;;;;;;13.40;5.03;;;11.70;99.90;;;;;;5016961;28;20407;-70
2022/01/02 07:21:21;;;;;;;16.38;5.22;;;11.80;99.90;;;;;;5016083;28;20054;-71
2022/01/02 07:23:48;;;;;;;20.00;5.13;;;11.70;99.90;;;;;;5016818;28;20060;-69
2022/01/02 07:26:14;;;;;;;11.98;4.15;;;11.70;99.90;;;;;;5016675;28;20077;-71
2022/01/02 07:28:40;;;;;;;21.58;5.00;;;11.70;99.90;;;;;;4999490;28;20046;-70
2022/01/02 07:31:05;;;;;;;17.48;5.30;;;11.70;99.90;;;;;;5016931;28;20046;-71
2022/01/02 07:33:31;;;;;;;16.83;4.75;;;11.70;99.90;;;;;;5016820;28;20125;-72
2022/01/02 07:35:56;;;;;;;18.25;5.03;;;11.70;99.90;;;;;;5016464;28;20053;-70
2022/01/02 07:38:22;;;;;;;14.43;5.38;;;11.70;99.90;;;;;;5016429;28;20058;-71
2022/01/02 07:40:48;;;;;;;15.43;4.90;;;11.70;99.90;;;;;;4999892;28;20054;-71
2022/01/02 07:43:14;;;;;;;13.15;5.32;;;11.70;99.90;;;;;;5004106;28;20442;-71
2022/01/02 07:45:40;;;;;;;17.02;5.78;;;11.70;99.90;;;;;;5004280;28;20057;-71
2022/01/02 07:48:05;;;;;;;14.80;5.82;;;11.70;99.90;;;;;;4998646;28;20231;-72
2022/01/02 07:50:31;;;;;;;12.60;4.80;;;11.60;99.90;;;;;;4995246;28;20419;-72
2022/01/02 07:52:56;;;;;;;13.68;5.07;;;11.60;99.90;;;;;;4980027;28;20148;-69
2022/01/02 07:55:22;;;;;;;23.55;5.57;;;11.60;99.90;;;;;;5015895;28;20133;-71
2022/01/02 07:57:47;;;;;;;17.10;5.75;;;11.60;99.90;;;;;;4998864;28;20061;-71
2022/01/02 08:00:15;;;;;;;13.10;5.68;;;11.60;99.90;;;;;;5016034;28;20049;-72
2022/01/02 08:02:41;;;;;;;14.07;6.10;;;11.60;99.90;;;;;;5016207;28;20069;-74
2022/01/02 08:05:10;;;;;;;16.40;6.57;;;11.60;99.90;;;;;;4998632;28;20462;-70
2022/01/02 08:07:38;;;;;;;19.25;5.75;;;11.50;99.90;;;;;;5016250;28;20045;-70
2022/01/02 08:10:04;;;;;;;18.65;6.47;;;11.50;99.90;;;;;;5015963;28;20065;-70
2022/01/02 08:12:30;;;;;;;16.52;5.47;;;11.50;99.90;;;;;;4994910;28;20046;-71
2022/01/02 08:14:55;;;;;;;11.05;5.20;;;11.50;99.90;;;;;;4996227;28;20362;-72
2022/01/02 08:17:21;;;;;;;16.77;5.90;;;11.50;99.90;;;;;;4979366;28;20062;-72
2022/01/02 08:19:46;;;;;;;10.32;5.07;;;11.50;99.90;;;;;;4995841;28;20068;-70
2022/01/02 08:22:12;;;;;;;16.92;6.25;;;11.50;99.90;;;;;;4978872;28;20065;-73
2022/01/02 08:24:37;;;;;;;15.35;6.32;;;11.50;99.90;;;;;;4978922;28;20050;-72
2022/01/02 08:27:03;;;;;;;15.40;6.65;;;11.50;99.90;;;;;;4979351;28;20050;-69
2022/01/02 08:29:29;;;;;;;15.50;6.30;;;11.50;99.90;;;;;;4996085;28;20112;-71
2022/01/02 08:31:54;;;;;;;16.75;6.20;;;11.50;99.90;;;;;;4992453;28;20453;-71
2022/01/02 08:34:20;;;;;;;14.55;6.05;;;11.50;99.90;;;;;;4998220;28;20517;-69
2022/01/02 08:36:45;;;;;;;15.70;6.68;;;11.50;99.90;;;;;;5015175;28;20079;-70
2022/01/02 08:39:15;;;;;;;14.40;6.20;;;11.50;99.90;;;;;;4996964;28;20050;-74
2022/01/02 08:41:41;;;;;;;16.92;6.72;;;11.40;99.90;;;;;;4996208;28;20045;-69
2022/01/02 08:44:07;;;;;;;11.48;6.10;;;11.40;99.90;;;;;;4995967;28;20042;-70
2022/01/02 08:46:32;;;;;;;12.27;6.72;;;11.40;99.90;;;;;;5009656;28;20046;-71
2022/01/02 08:48:58;;;;;;;12.05;6.28;;;11.40;99.90;;;;;;4979317;28;20061;-71
2022/01/02 08:51:24;;;;;;;17.83;6.30;;;11.40;99.90;;;;;;4978602;28;20104;-70
2022/01/02 08:53:49;;;;;;;11.40;6.50;;;11.40;99.90;;;;;;4978835;28;20133;-72
2022/01/02 08:56:15;;;;;;;13.65;6.47;;;11.40;99.90;;;;;;4972324;28;20042;-71
2022/01/02 08:58:40;;;;;;;14.73;6.47;;;11.40;99.90;;;;;;5015024;28;20049;-70
2022/01/02 09:01:06;;;;;;;18.00;6.60;;;11.40;99.90;;;;;;5015461;28;20057;-70
2022/01/02 09:03:33;;;;;;;14.70;6.18;;;11.40;99.90;;;;;;4997446;28;20077;-71
2022/01/02 09:05:58;;;;;;;15.32;7.03;;;11.40;99.90;;;;;;5014953;28;20050;-69
2022/01/02 09:08:24;;;;;;;13.73;7.47;;;11.30;99.90;;;;;;5015084;28;20045;-70
2022/01/02 09:10:49;;;;;;;15.63;7.10;;;11.30;99.90;;;;;;4998083;28;20058;-70
2022/01/02 09:13:15;;;;;;;13.35;6.78;;;11.30;99.90;;;;;;4981505;28;20134;-70
2022/01/02 09:15:41;;;;;;;18.30;7.05;;;11.30;99.90;;;;;;4996338;28;20046;-73
2022/01/02 09:18:06;;;;;;;14.73;7.30;;;11.30;99.90;;;;;;4997318;28;20054;-72
2022/01/02 09:20:33;;;;;;;15.00;7.35;;;11.30;99.90;;;;;;5014689;28;20124;-69
2022/01/02 09:22:59;;;;;;;18.83;7.65;;;11.40;99.90;;;;;;4981568;28;20454;-69
2022/01/02 09:25:24;;;;;;;15.95;7.47;;;11.30;99.90;;;;;;4997440;28;20107;-69
2022/01/02 09:27:50;;;;;;;19.83;7.60;;;11.30;99.90;;;;;;4996565;28;20073;-70
2022/01/02 09:30:16;;;;;;;14.98;7.28;;;11.30;99.90;;;;;;4997455;28;20057;-71
2022/01/02 09:32:41;;;;;;;16.05;6.95;;;11.30;99.90;;;;;;4997150;28;20053;-72
2022/01/02 09:35:09;;;;;;;16.77;7.45;;;11.30;99.90;;;;;;5014564;28;20062;-70
2022/01/02 09:37:35;;;;;;;16.77;7.32;;;11.30;99.90;;;;;;4996849;28;20077;-69
2022/01/02 09:40:02;;;;;;;13.75;6.72;;;11.30;99.90;;;;;;4998231;28;20532;-70
2022/01/02 09:42:28;;;;;;;16.67;7.57;;;11.40;99.90;;;;;;4997431;28;20057;-70
2022/01/02 09:44:54;;;;;;;20.15;7.47;;;11.40;99.90;;;;;;5014542;28;20058;-72
2022/01/02 09:47:21;;;;;;;15.38;6.85;;;11.40;99.90;;;;;;4997506;28;20046;-71
2022/01/02 09:49:47;;;;;;;12.57;7.18;;;11.40;99.90;;;;;;5014568;28;20046;-69
2022/01/02 09:52:13;;;;;;;14.48;7.00;;;11.40;99.90;;;;;;4980711;28;20414;-69
2022/01/02 09:54:39;;;;;;;16.75;7.03;;;11.40;99.90;;;;;;4998610;28;20046;-71
2022/01/02 09:57:04;;;;;;;20.42;7.35;;;11.40;99.90;;;;;;5013426;28;20038;-70
2022/01/02 09:59:30;;;;;;;17.27;8.63;;;11.40;99.90;;;;;;4997912;28;20446;-71
2022/01/02 10:01:59;;;;;;;12.80;7.00;;;11.40;99.90;;;;;;4998293;28;20050;-71
2022/01/02 10:04:38;;;;;;;12.40;7.43;;;11.40;99.90;;;;;;4997992;28;20054;-70
2022/01/02 10:07:06;;;;;;;14.30;7.18;;;11.40;99.90;;;;;;4997930;28;20050;-70
2022/01/02 10:09:36;;;;;;;12.85;7.10;;;11.50;99.90;;;;;;5001289;28;20390;-70
2022/01/02 10:12:23;;;;;;;12.73;7.82;;;11.50;99.90;;;;;;5000899;28;20410;-70
2022/01/02 10:15:17;;;;;;;16.40;7.55;;;11.50;99.90;;;;;;5018455;28;20478;-70
2022/01/02 10:17:54;;;;;;;;;;;11.60;99.90;;;;;;5018299;28;20050;-72
2022/01/02 10:20:21;;;;;;;12.77;7.60;;;11.60;99.90;;;;;;5017914;28;19929;-72
2022/01/02 10:23:09;;;;;;;12.50;7.22;;;11.60;99.90;;;;;;5000453;28;20057;-71
2022/01/02 10:25:36;;;;;;;15.50;7.68;;;11.60;99.90;;;;;;5000861;28;20053;-70
2022/01/02 10:28:18;;;;;;;16.02;8.10;;;11.60;99.90;;;;;;5017416;28;20050;-71
2022/01/02 10:30:48;;;;;;;14.60;8.30;;;11.60;99.90;;;;;;5017801;28;20042;-72
2022/01/02 10:33:14;;;;;;;14.88;8.32;;;11.70;99.90;;;;;;5017685;28;20046;-70
2022/01/02 10:35:41;;;;;;;15.85;8.02;;;11.70;99.90;;;;;;4998992;28;20112;-70
2022/01/02 10:38:13;;;;;;;17.88;8.60;;;11.70;99.90;;;;;;4981995;28;20100;-70
2022/01/02 10:40:40;;;;;;;17.52;9.30;;;11.70;99.90;;;;;;5013791;28;20046;-70
2022/01/02 10:43:07;;;;;;;15.73;8.30;;;11.70;99.90;;;;;;4996501;28;20459;-70
2022/01/02 10:45:37;;;;;;;16.75;9.10;;;11.70;99.90;;;;;;4999208;28;20053;-71
2022/01/02 10:48:10;;;;;;;20.95;9.60;;;11.60;99.90;;;;;;5018353;28;20057;-71
2022/01/02 10:50:38;;;;;;;19.08;9.05;;;11.60;99.90;;;;;;5017407;28;20042;-68
2022/01/02 10:53:15;;;;;;;15.15;9.20;;;11.60;99.90;;;;;;5015128;28;20038;-70
2022/01/02 10:55:45;;;;;;;15.25;9.43;;;11.60;99.90;;;;;;5014851;28;20095;-70
2022/01/02 10:58:11;;;;;;;16.00;8.40;;;11.70;99.90;;;;;;5017317;28;20339;-70
2022/01/02 11:00:38;;;;;;;14.65;8.20;;;11.70;99.90;;;;;;4999248;28;20053;-69
2022/01/02 11:03:06;;;;;;;14.55;8.73;;;11.70;99.90;;;;;;4999252;28;20064;-72
2022/01/02 11:05:35;;;;;;;15.52;8.77;;;11.70;99.90;;;;;;5017059;28;20073;-71
2022/01/02 11:08:03;;;;;;;17.65;9.00;;;11.70;99.90;;;;;;5017750;28;20188;-70
2022/01/02 11:10:31;;;;;;;14.95;7.05;;;11.80;99.90;;;;;;4992736;28;20046;-69
2022/01/02 11:12:56;;;;;;;15.60;8.15;;;11.80;99.90;;;;;;5016755;28;20038;-69
2022/01/02 11:15:24;;;;;;;16.00;7.22;;;11.80;99.90;;;;;;5016477;28;20069;-69
2022/01/02 11:17:50;;;;;;;11.73;6.68;;;11.80;99.90;;;;;;5000004;28;20069;-71
2022/01/02 11:20:22;;;;;;;13.25;6.50;;;11.80;99.90;;;;;;4999861;28;20058;-69
2022/01/02 11:23:14;;;;;;;14.85;7.35;;;11.80;99.90;;;;;;5016286;28;20060;-71
2022/01/02 11:25:52;;;;;;;11.55;6.28;;;11.80;99.90;;;;;;4999484;28;20041;-69
2022/01/02 11:28:25;;;;;;;14.77;7.13;;;11.80;99.90;;;;;;4999409;28;20513;-69
2022/01/02 11:30:52;;;;;;;13.73;5.65;;;11.80;99.90;;;;;;4982669;28;20054;-71
2022/01/02 11:33:20;;;;;;;14.70;6.40;;;11.80;99.90;;;;;;5016557;28;20054;-71
2022/01/02 11:35:49;;;;;;;11.75;6.50;;;11.80;99.90;;;;;;5016728;28;20320;-71
2022/01/02 11:38:17;;;;;;;14.10;6.78;;;11.80;99.90;;;;;;5016351;28;20374;-70
2022/01/02 11:40:51;;;;;;;15.13;7.68;;;11.80;99.90;;;;;;4999240;28;20054;-70
2022/01/02 11:43:35;;;;;;;14.63;6.53;;;11.80;99.90;;;;;;4999590;28;20062;-69
2022/01/02 11:46:17;;;;;;;15.77;6.85;;;11.80;99.90;;;;;;5016231;28;20046;-69
2022/01/02 11:49:03;;;;;;;13.07;6.18;;;11.80;99.90;;;;;;4997720;28;20057;-71
2022/01/02 11:51:50;;;;;;;14.00;6.22;;;11.80;99.90;;;;;;4998681;28;20502;-70
2022/01/02 11:54:31;;;;;;;17.83;6.72;;;11.80;99.90;;;;;;4988311;28;20413;-70
2022/01/02 11:57:25;;;;;;;15.43;5.53;;;11.80;99.90;;;;;;5015661;28;20093;-70
2022/01/02 11:59:52;;;;;;;16.25;5.90;;;11.80;99.90;;;;;;4991828;28;20057;-71
2022/01/02 12:02:24;;;;;;;15.98;5.35;;;11.80;99.90;;;;;;5015530;28;20136;-71
2022/01/02 12:07:34;;;;;;;14.20;4.90;;;11.90;99.90;;;;;;4998198;28;20388;-70
2022/01/02 12:10:18;;;;;;;18.77;4.63;;;11.80;99.90;;;;;;4996302;28;20426;-71
2022/01/02 12:13:04;;;;;;;;;;;11.80;99.90;;;;;;5007014;28;20450;-72
2022/01/02 12:15:33;;;;;;;14.32;4.60;;;11.80;99.90;;;;;;4987487;28;19929;-69
2022/01/02 12:18:10;;;;;;;17.00;4.50;;;11.80;99.90;;;;;;4997407;28;20053;-68
2022/01/02 12:20:56;;;;;;;15.70;4.93;;;11.80;99.90;;;;;;5010953;28;20116;-69
2022/01/02 12:23:41;;;;;;;12.18;4.07;;;11.80;99.90;;;;;;5015261;28;20073;-70
2022/01/02 12:26:21;;;;;;;14.68;4.20;;;11.70;99.90;;;;;;4998201;28;20050;-70
2022/01/02 12:28:56;;;;;;;15.10;4.55;;;11.70;99.90;;;;;;5015414;28;20053;-70
2022/01/02 12:31:26;;;;;;;15.63;4.85;;;11.70;99.90;;;;;;4997562;28;20045;-72
2022/01/02 12:33:54;;;;;;;18.48;4.82;;;11.70;99.90;;;;;;5014068;28;20053;-70
2022/01/02 12:36:21;;;;;;;18.02;4.88;;;11.70;99.90;;;;;;5015199;28;20046;-69
2022/01/02 12:39:03;;;;;;;15.52;4.47;;;11.70;99.90;;;;;;4998291;28;20426;-71
2022/01/02 12:41:30;;;;;;;19.40;4.47;;;11.80;99.90;;;;;;4996314;28;20054;-70
2022/01/02 12:43:59;;;;;;;13.10;4.00;;;11.70;99.90;;;;;;4995957;28;20046;-69
2022/01/02 12:46:40;;;;;;;17.67;4.97;;;11.80;99.90;;;;;;4997891;28;20058;-68
2022/01/02 12:49:12;;;;;;;16.15;4.15;;;11.80;99.90;;;;;;5015023;28;20093;-68
2022/01/02 12:51:41;;;;;;;16.75;4.15;;;11.80;99.90;;;;;;4997327;28;20083;-74